Time;durP1;ratioP1;P1;durP2;ratioP2;P2;SDS_P1;SDS_P2;PMS_P1;PMS_P2;Temp;Humidity;BMP_temperature;BMP_pressure;BME280_temperature;BME280_humidity;BME280_pressure;Samples;Min_cycle;Max_cycle;Signal;HPM_P1;HPM_P2
2022/09/02 00:01:10;;;;;;;7.00;5.70;;;;;;;-143.84;66.33;45071.91;5051506;28;20560;-75
2022/09/02 00:03:37;;;;;;;6.53;5.90;;;;;;;-143.84;66.30;45056.69;5051328;28;20449;-74
2022/09/02 00:06:06;;;;;;;10.57;6.90;;;;;;;-143.84;66.49;45064.31;5050889;28;20449;-75
2022/09/02 00:08:33;;;;;;;7.87;5.93;;;;;;;-143.84;66.58;45052.88;5051350;28;21001;-75
2022/09/02 00:11:02;;;;;;;12.77;5.73;;;;;;;-143.84;66.29;45049.06;5051287;28;20936;-75
2022/09/02 00:13:29;;;;;;;13.70;5.77;;;;;;;-143.84;66.03;45056.69;5051224;28;20442;-75
2022/09/02 00:15:58;;;;;;;8.83;6.27;;;;;;;-143.84;66.21;45049.06;5051089;28;20434;-75
2022/09/02 00:18:26;;;;;;;8.37;5.90;;;;;;;-143.84;66.21;45073.81;5051046;28;20971;-75
2022/09/02 00:20:53;;;;;;;10.20;6.00;;;;;;;-143.84;66.00;45039.53;5049883;28;21239;-75
2022/09/02 00:23:21;;;;;;;7.70;6.30;;;;;;;-143.84;65.93;45062.41;5051374;28;20438;-75
2022/09/02 00:25:48;;;;;;;8.43;6.20;;;;;;;-143.84;65.56;45041.44;5051172;28;20448;-75
2022/09/02 00:28:16;;;;;;;8.30;6.67;;;;;;;-143.84;65.52;45045.25;5050940;28;20807;-75
2022/09/02 00:30:44;;;;;;;10.30;6.27;;;;;;;-143.84;65.56;45070.00;5050945;28;20560;-75
2022/09/02 00:33:13;;;;;;;8.43;6.40;;;;;;;-143.84;65.44;45062.41;5051018;28;20991;-75
2022/09/02 00:35:41;;;;;;;11.07;6.87;;;;;;;-143.84;65.52;45083.34;5050802;28;20507;-75
2022/09/02 00:38:08;;;;;;;9.23;6.00;;;;;;;-143.84;65.46;45022.41;5050883;28;20789;-75
2022/09/02 00:40:36;;;;;;;9.90;5.40;;;;;;;-143.84;65.23;45064.31;5051013;28;20442;-76
2022/09/02 00:43:07;;;;;;;15.03;5.87;;;;;;;-143.84;65.23;45054.78;5050764;28;20438;-75
2022/09/02 00:45:35;;;;;;;11.70;6.17;;;;;;;-143.84;65.09;45075.72;5050837;28;20544;-75
2022/09/02 00:48:02;;;;;;;8.70;5.90;;;;;;;-143.84;65.02;45054.78;5050902;28;20486;-75
2022/09/02 00:50:34;;;;;;;10.43;5.93;;;;;;;-143.84;65.06;45047.16;5050478;28;20442;-75
2022/09/02 00:53:06;;;;;;;15.37;6.20;;;;;;;-143.84;65.23;45037.66;5050353;28;20543;-75
2022/09/02 00:55:38;;;;;;;8.70;6.30;;;;;;;-143.84;65.34;45064.31;5050388;28;20870;-75
2022/09/02 00:58:11;;;;;;;8.23;5.73;;;;;;;-143.84;65.46;45064.31;5050553;28;20446;-75
2022/09/02 01:00:43;;;;;;;6.43;5.83;;;;;;;-143.84;65.40;45071.91;5050729;28;21348;-75
2022/09/02 01:03:12;;;;;;;10.03;6.10;;;;;;;-143.84;65.73;45060.50;5050342;28;20456;-76
2022/09/02 01:05:45;;;;;;;9.23;5.10;;;;;;;-143.84;65.73;45058.59;5050433;28;20441;-75
2022/09/02 01:08:13;;;;;;;8.13;5.87;;;;;;;-143.84;65.63;45054.78;5050312;28;20442;-75
2022/09/02 01:10:41;;;;;;;5.20;4.80;;;;;;;-143.84;65.82;45052.88;5050316;28;20446;-75
2022/09/02 01:13:11;;;;;;;6.30;5.27;;;;;;;-143.84;65.81;45056.69;5050469;28;20465;-75
2022/09/02 01:15:43;;;;;;;12.50;5.83;;;;;;;-143.84;65.71;45052.88;5050313;28;20932;-75
2022/09/02 01:18:14;;;;;;;9.03;5.90;;;;;;;-143.84;65.79;45050.97;5049983;28;20966;-75
2022/09/02 01:20:43;;;;;;;6.50;5.70;;;;;;;-143.84;65.85;45031.94;5050004;28;20442;-75
2022/09/02 01:23:13;;;;;;;12.10;5.77;;;;;;;-143.84;65.78;45060.50;5049844;28;20437;-75
2022/09/02 01:25:41;;;;;;;7.30;5.53;;;;;;;-143.84;65.97;45070.00;5049766;28;20453;-75
2022/09/02 01:28:11;;;;;;;8.73;6.20;;;;;;;-143.84;66.05;45062.41;5050009;28;20551;-75
2022/09/02 01:30:41;;;;;;;8.20;4.90;;;;;;;-143.84;65.93;45033.84;5049782;28;20843;-72
2022/09/02 01:33:09;;;;;;;10.63;5.50;;;;;;;-143.84;65.70;45043.34;5049994;28;20438;-72
2022/09/02 01:35:38;;;;;;;5.87;5.30;;;;;;;-143.84;66.02;45077.63;5050143;28;20445;-72
2022/09/02 01:38:05;;;;;;;10.23;4.93;;;;;;;-143.84;66.13;45066.22;5050622;28;20438;-72
2022/09/02 01:40:34;;;;;;;6.70;5.50;;;;;;;-143.84;65.93;45062.41;5050009;28;20515;-72
2022/09/02 01:43:06;;;;;;;5.67;5.00;;;;;;;-143.84;66.47;45070.00;5049865;28;20481;-72
2022/09/02 01:45:34;;;;;;;8.70;5.30;;;;;;;-143.84;66.51;45077.63;5050149;28;20438;-72
2022/09/02 01:48:02;;;;;;;7.10;5.13;;;;;;;-143.84;66.53;45066.22;5050154;28;20514;-72
2022/09/02 01:50:30;;;;;;;7.30;6.00;;;;;;;-143.84;66.97;45075.72;5050146;28;20916;-72
2022/09/02 01:52:58;;;;;;;8.33;5.10;;;;;;;-143.84;66.88;45132.84;5049874;28;20442;-72
2022/09/02 01:55:25;;;;;;;13.47;5.00;;;;;;;-143.84;66.83;45073.81;5049846;28;20457;-72
2022/09/02 01:57:54;;;;;;;9.83;5.00;;;;;;;-143.84;66.82;45071.91;5049614;28;20465;-72
2022/09/02 02:00:22;;;;;;;6.63;4.77;;;;;;;-143.84;67.02;45049.06;5049783;28;20955;-72
2022/09/02 02:02:49;;;;;;;8.03;4.70;;;;;;;-143.84;67.07;45079.53;5049753;28;20568;-72
2022/09/02 02:05:17;;;;;;;6.83;4.70;;;;;;;-143.84;67.22;45062.41;5049930;28;20943;-72
2022/09/02 02:07:45;;;;;;;6.63;4.90;;;;;;;-143.84;67.15;45047.16;5049696;28;20957;-72
2022/09/02 02:10:14;;;;;;;5.23;4.67;;;;;;;-143.84;67.41;45075.72;5049650;28;20434;-72
2022/09/02 02:12:41;;;;;;;7.10;4.80;;;;;;;-143.84;67.56;45070.00;5048839;28;20437;-72
2022/09/02 02:15:15;;;;;;;11.80;4.87;;;;;;;-143.84;67.92;45064.31;5048535;28;20449;-72
2022/09/02 02:17:42;;;;;;;6.17;5.43;;;;;;;-143.84;67.89;45071.91;5048315;28;20450;-72
2022/09/02 02:20:13;;;;;;;6.90;5.07;;;;;;;-143.84;67.67;45064.31;5048911;28;20430;-72
2022/09/02 02:22:42;;;;;;;12.13;4.17;;;;;;;-143.84;68.11;45077.63;5048429;28;20477;-72
2022/09/02 02:25:10;;;;;;;9.70;4.63;;;;;;;-143.84;68.49;45062.41;5048773;28;20434;-72
2022/09/02 02:27:37;;;;;;;12.23;3.67;;;;;;;-143.84;68.46;45045.25;5049551;28;20449;-72
2022/09/02 02:30:05;;;;;;;6.43;5.17;;;;;;;-143.84;68.63;45056.69;5036378;28;20451;-72
2022/09/02 02:32:34;;;;;;;9.63;4.23;;;;;;;-143.84;68.75;45056.69;5029244;28;20445;-72
2022/09/02 02:35:02;;;;;;;5.03;4.40;;;;;;;-143.84;68.60;45077.63;5029057;28;20447;-72
2022/09/02 02:37:29;;;;;;;5.53;3.60;;;;;;;-143.84;68.87;45047.16;5028954;28;20443;-72
2022/09/02 02:39:57;;;;;;;6.27;4.53;;;;;;;-143.84;69.17;45070.00;5029194;28;20914;-72
2022/09/02 02:42:24;;;;;;;10.57;5.07;;;;;;;-143.84;69.20;45064.31;5028894;28;20475;-72
2022/09/02 02:44:51;;;;;;;7.03;4.10;;;;;;;-143.84;68.98;45052.88;5031894;28;20439;-72
2022/09/02 02:47:18;;;;;;;10.20;5.37;;;;;;;-143.84;69.02;45064.31;5033285;28;20439;-72
2022/09/02 02:49:47;;;;;;;8.33;4.60;;;;;;;-143.84;69.06;45073.81;5033308;28;20438;-72
2022/09/02 02:52:14;;;;;;;9.13;4.90;;;;;;;-143.84;69.04;45056.69;5033286;28;20811;-71
2022/09/02 02:54:42;;;;;;;7.60;4.27;;;;;;;-143.84;69.03;45045.25;5033026;28;20474;-72
2022/09/02 02:57:10;;;;;;;7.07;3.93;;;;;;;-143.84;69.17;45052.88;5032942;28;20445;-71
2022/09/02 02:59:38;;;;;;;6.00;4.67;;;;;;;-143.84;69.03;45050.97;5033442;28;20532;-71
2022/09/02 03:02:06;;;;;;;4.73;3.77;;;;;;;-143.84;69.12;45066.22;5033413;28;20485;-72
2022/09/02 03:04:33;;;;;;;8.93;4.27;;;;;;;-143.84;69.41;45056.69;5033205;28;20438;-71
2022/09/02 03:07:02;;;;;;;7.70;4.10;;;;;;;-143.84;69.51;45068.13;5032878;28;21015;-72
2022/09/02 03:09:30;;;;;;;16.17;4.47;;;;;;;-143.84;69.47;45049.06;5015408;28;21172;-71
2022/09/02 03:11:57;;;;;;;7.70;4.50;;;;;;;-143.84;69.49;45041.44;5029899;28;20454;-71
2022/09/02 03:14:25;;;;;;;12.00;4.07;;;;;;;-143.84;69.68;45054.78;5032162;28;20446;-72
2022/09/02 03:16:52;;;;;;;10.43;3.90;;;;;;;-143.84;69.74;45054.78;5032511;28;20496;-72
2022/09/02 03:19:20;;;;;;;13.33;4.33;;;;;;;-143.84;69.86;45075.72;5032702;28;20469;-71
2022/09/02 03:21:47;;;;;;;4.60;3.67;;;;;;;-143.84;70.15;45071.91;5032524;28;20960;-73
2022/09/02 03:24:16;;;;;;;7.53;4.10;;;;;;;-143.84;70.17;45043.34;5032048;28;20446;-71
2022/09/02 03:26:43;;;;;;;7.60;3.57;;;;;;;-143.84;70.33;45085.25;5032214;28;20544;-72
2022/09/02 03:29:11;;;;;;;12.00;3.80;;;;;;;-143.84;70.29;45087.16;5032918;28;20941;-71
2022/09/02 03:31:38;;;;;;;9.57;4.63;;;;;;;-143.84;70.69;45050.97;5031917;28;20508;-73
2022/09/02 03:34:05;;;;;;;8.93;4.70;;;;;;;-143.84;70.48;45062.41;5032022;28;20442;-72
2022/09/02 03:36:35;;;;;;;7.50;4.17;;;;;;;-143.84;70.49;45054.78;5031589;28;20999;-72
2022/09/02 03:39:03;;;;;;;5.60;3.80;;;;;;;-143.84;70.66;45056.69;5031994;28;20445;-73
2022/09/02 03:41:32;;;;;;;5.80;4.17;;;;;;;-143.84;70.79;45070.00;5031484;28;20443;-72
2022/09/02 03:44:00;;;;;;;12.57;4.97;;;;;;;-143.84;70.73;45064.31;5030955;28;20450;-71
2022/09/02 03:46:28;;;;;;;4.13;3.83;;;;;;;-143.84;70.99;45047.16;5031596;28;20443;-72
2022/09/02 03:48:55;;;;;;;14.27;4.30;;;;;;;-143.84;71.01;45066.22;5031341;28;20964;-72
2022/09/02 03:51:24;;;;;;;4.63;3.63;;;;;;;-143.84;71.07;45079.53;5031312;28;20524;-73
2022/09/02 03:53:52;;;;;;;5.70;4.83;;;;;;;-143.84;71.14;45045.25;5032231;28;20482;-73
2022/09/02 03:56:19;;;;;;;15.47;4.40;;;;;;;-143.84;71.15;45071.91;5032171;28;20431;-73
2022/09/02 03:58:50;;;;;;;4.90;4.30;;;;;;;-143.84;71.03;45054.78;5032317;28;20450;-73
2022/09/02 04:01:20;;;;;;;7.33;4.10;;;;;;;-143.84;70.94;45068.13;5032252;28;20573;-73
2022/09/02 04:03:48;;;;;;;12.07;4.80;;;;;;;-143.84;71.11;45056.69;5031786;28;21004;-72
2022/09/02 04:06:17;;;;;;;9.47;5.00;;;;;;;-143.84;71.16;45054.78;5032162;28;20442;-73
2022/09/02 04:08:44;;;;;;;13.00;4.40;;;;;;;-143.84;71.04;45033.84;5032157;28;21061;-73
2022/09/02 04:11:16;;;;;;;8.63;3.57;;;;;;;-143.84;71.03;45041.44;5031688;28;20438;-73
2022/09/02 04:13:43;;;;;;;7.70;4.10;;;;;;;-143.84;71.05;45070.00;5031832;28;20458;-72
2022/09/02 04:16:15;;;;;;;11.00;4.73;;;;;;;-143.84;70.82;45052.88;5031650;28;20435;-73
2022/09/02 04:18:42;;;;;;;8.90;4.40;;;;;;;-143.84;70.68;45077.63;5031917;28;20450;-73
2022/09/02 04:21:09;;;;;;;4.77;4.33;;;;;;;-143.84;70.34;45045.25;5031827;28;20438;-73
2022/09/02 04:23:37;;;;;;;4.70;4.30;;;;;;;-143.84;70.13;45054.78;5031902;28;20486;-72
2022/09/02 04:26:05;;;;;;;8.93;5.30;;;;;;;-143.84;70.13;45054.78;5031811;28;20447;-72
2022/09/02 04:28:32;;;;;;;5.40;3.93;;;;;;;-143.84;70.43;45028.13;5031848;28;20478;-73
2022/09/02 04:31:00;;;;;;;12.70;4.20;;;;;;;-143.84;70.48;45062.41;5031685;28;20449;-73
2022/09/02 04:33:28;;;;;;;5.67;4.17;;;;;;;-143.84;70.08;45090.97;5031585;28;20434;-73
2022/09/02 04:35:56;;;;;;;8.93;4.57;;;;;;;-143.84;69.40;45066.22;5031704;28;20454;-73
2022/09/02 04:38:23;;;;;;;16.83;4.00;;;;;;;-143.84;68.86;45062.41;5031793;28;20443;-72
2022/09/02 04:40:50;;;;;;;6.43;4.23;;;;;;;-143.84;68.56;45043.34;5031575;28;20870;-73
2022/09/02 04:43:17;;;;;;;22.20;4.80;;;;;;;-143.84;67.81;45071.91;5031565;28;20470;-73
2022/09/02 04:45:46;;;;;;;6.87;4.33;;;;;;;-143.84;67.67;45035.75;5031289;28;20534;-72
2022/09/02 04:48:13;;;;;;;5.30;3.80;;;;;;;-143.84;67.27;45052.88;5031349;28;20435;-72
2022/09/02 04:50:42;;;;;;;6.77;3.80;;;;;;;-143.84;65.97;45039.53;5031178;28;20505;-72
2022/09/02 04:53:10;;;;;;;8.37;3.90;;;;;;;-143.84;64.79;45047.16;5030949;28;20574;-72
2022/09/02 04:55:39;;;;;;;6.47;4.27;;;;;;;-143.84;63.85;45035.75;5030887;28;20450;-73
2022/09/02 04:58:06;;;;;;;9.93;4.17;;;;;;;-143.84;62.09;45009.09;5030924;28;20446;-73
2022/09/02 05:00:34;;;;;;;10.13;4.30;;;;;;;-143.84;60.55;45043.34;5031242;28;20866;-73
2022/09/02 05:03:01;;;;;;;5.50;4.10;;;;;;;-143.84;59.32;45030.03;5030753;28;20482;-73
2022/09/02 05:05:28;;;;;;;6.30;4.40;;;;;;;-143.84;58.39;45028.13;5030543;28;20439;-73
2022/09/02 05:07:57;;;;;;;7.60;3.70;;;;;;;-143.84;56.87;45005.28;5029851;28;20501;-73
2022/09/02 05:10:24;;;;;;;7.93;3.70;;;;;;;-143.84;55.77;44999.56;5030563;28;20537;-73
2022/09/02 05:12:52;;;;;;;6.50;3.77;;;;;;;-143.84;55.04;44980.53;5030758;28;20434;-73
2022/09/02 05:15:19;;;;;;;4.43;3.03;;;;;;;-143.84;54.63;45012.88;5030265;28;20451;-74
2022/09/02 05:17:47;;;;;;;5.10;3.40;;;;;;;-143.84;54.44;44993.84;5030304;28;20438;-73
2022/09/02 05:20:14;;;;;;;7.53;4.33;;;;;;;-143.84;53.90;45012.88;5030154;28;20851;-73
2022/09/02 05:22:42;;;;;;;5.00;3.90;;;;;;;-143.84;53.09;44967.19;5030104;28;20478;-74
2022/09/02 05:25:11;;;;;;;4.90;3.40;;;;;;;-143.84;52.68;44990.03;5030396;28;20447;-73
2022/09/02 05:27:39;;;;;;;12.00;3.77;;;;;;;-143.84;52.94;44986.22;5030042;28;20890;-73
2022/09/02 05:30:07;;;;;;;3.43;2.93;;;;;;;-143.84;53.00;44988.13;5029880;28;20443;-73
2022/09/02 05:32:35;;;;;;;9.97;4.10;;;;;;;-143.84;52.14;44982.41;5030362;28;20438;-74
2022/09/02 05:35:02;;;;;;;8.50;3.00;;;;;;;-143.84;50.73;44988.13;5030066;28;20600;-73
2022/09/02 05:37:29;;;;;;;8.17;3.30;;;;;;;-143.84;50.38;44990.03;5029828;28;20450;-74
2022/09/02 05:39:56;;;;;;;7.70;3.97;;;;;;;-143.84;50.09;44951.97;5029741;28;20933;-74
2022/09/02 05:42:25;;;;;;;16.80;4.17;;;;;;;-143.84;49.68;44982.41;5029505;28;20532;-74
2022/09/02 05:44:52;;;;;;;11.67;3.80;;;;;;;-143.84;49.52;44963.38;5029942;28;20501;-74
2022/09/02 05:47:19;;;;;;;10.57;3.73;;;;;;;-143.84;49.45;44955.75;5029794;28;20431;-74
2022/09/02 05:49:46;;;;;;;5.80;3.10;;;;;;;-143.84;49.34;44963.38;5029580;28;20450;-74
2022/09/02 05:52:14;;;;;;;10.37;3.27;;;;;;;-143.84;48.72;44974.81;5029678;28;21142;-74
2022/09/02 05:54:41;;;;;;;5.60;3.20;;;;;;;-143.84;48.77;44986.22;5029208;28;21074;-74
2022/09/02 05:57:11;;;;;;;7.80;2.87;;;;;;;-143.84;48.94;44959.56;5029683;28;20443;-74
2022/09/02 05:59:42;;;;;;;14.60;3.87;;;;;;;-143.84;48.83;44934.81;5029542;28;20462;-73
2022/09/02 06:02:11;;;;;;;5.50;3.43;;;;;;;-143.84;47.25;44967.19;5029424;28;21031;-74
2022/09/02 06:04:39;;;;;;;8.27;3.63;;;;;;;-143.84;46.69;44932.91;5029143;28;20442;-74
2022/09/02 06:07:06;;;;;;;9.73;3.23;;;;;;;-143.84;46.92;44929.09;5029488;28;20793;-73
2022/09/02 06:09:34;;;;;;;14.47;4.50;;;;;;;-143.84;47.00;44904.34;5029316;28;20820;-74
2022/09/02 06:12:01;;;;;;;11.67;4.03;;;;;;;-143.84;46.79;44961.47;5029317;28;20517;-74
2022/09/02 06:14:28;;;;;;;7.70;3.60;;;;;;;-143.84;46.78;44923.41;5029355;28;20447;-74
2022/09/02 06:16:58;;;;;;;8.70;4.20;;;;;;;-143.84;46.98;44925.31;5029265;28;20521;-74
2022/09/02 06:19:27;;;;;;;11.77;3.50;;;;;;;-143.84;46.50;44955.75;5028216;28;20957;-74
2022/09/02 06:21:55;;;;;;;12.70;4.40;;;;;;;-143.84;47.32;44936.72;5029493;28;20447;-74
2022/09/02 06:24:23;;;;;;;15.80;4.30;;;;;;;-143.84;46.98;44936.72;5029419;28;20572;-74
2022/09/02 06:26:51;;;;;;;10.80;5.73;;;;;;;-143.84;47.26;44934.81;5029173;28;20439;-74
2022/09/02 06:29:20;;;;;;;9.53;3.97;;;;;;;-143.84;47.09;44950.06;5029301;28;20804;-74
2022/09/02 06:31:49;;;;;;;8.87;4.47;;;;;;;-143.84;46.92;44940.53;5029286;28;20441;-74
2022/09/02 06:34:19;;;;;;;8.57;3.87;;;;;;;-143.84;47.47;44953.88;5029211;28;20539;-74
2022/09/02 06:36:49;;;;;;;10.90;3.97;;;;;;;-143.84;47.52;44929.09;5028853;28;20450;-74
2022/09/02 06:39:18;;;;;;;18.20;4.30;;;;;;;-143.84;46.89;44932.91;5028265;28;20443;-74
2022/09/02 06:41:46;;;;;;;10.30;4.00;;;;;;;-143.84;47.01;44931.00;5027967;28;20447;-74
2022/09/02 06:44:14;;;;;;;10.80;4.60;;;;;;;-143.84;47.06;44932.91;5028170;28;21065;-74
2022/09/02 06:46:45;;;;;;;12.50;4.60;;;;;;;-143.84;47.53;44925.31;5028390;28;20450;-73
2022/09/02 06:49:14;;;;;;;15.17;4.07;;;;;;;-143.84;48.18;44938.63;5028162;28;20486;-74
2022/09/02 06:51:45;;;;;;;11.80;5.37;;;;;;;-143.84;49.16;44927.19;5028822;28;21220;-74
2022/09/02 06:54:15;;;;;;;10.90;4.50;;;;;;;-143.84;49.47;44925.31;5028813;28;20470;-73
2022/09/02 06:56:42;;;;;;;11.37;4.50;;;;;;;-143.84;50.31;44934.81;5028770;28;20504;-74
2022/09/02 06:59:10;;;;;;;12.50;4.80;;;;;;;-143.84;50.79;44911.97;5028925;28;20457;-74
2022/09/02 07:01:38;;;;;;;14.20;4.90;;;;;;;-143.84;49.47;44931.00;5028671;28;20446;-74
2022/09/02 07:06:53;;;;;;;21.40;5.10;;;;;;;-143.84;47.57;44940.53;5021797;28;20488;-74
2022/09/02 07:09:23;;;;;;;16.63;4.80;;;;;;;-143.84;47.75;44942.44;5028634;28;20443;-74
2022/09/02 07:11:51;;;;;;;16.47;5.20;;;;;;;-143.84;47.60;44919.59;5029169;28;20505;-74
2022/09/02 07:14:20;;;;;;;9.90;4.90;;;;;;;-143.84;46.95;44942.44;5028639;28;20435;-74
2022/09/02 07:16:49;;;;;;;16.00;5.40;;;;;;;-143.84;48.00;44919.59;5028720;28;20449;-73
2022/09/02 07:19:17;;;;;;;10.97;4.73;;;;;;;-143.84;48.97;44892.94;5028633;28;20446;-74
2022/09/02 07:21:44;;;;;;;23.53;6.07;;;;;;;-143.84;48.38;44910.06;5028554;28;20442;-74
2022/09/02 07:24:14;;;;;;;13.37;4.80;;;;;;;-143.84;49.17;44917.69;5028851;28;20556;-74
2022/09/02 07:26:42;;;;;;;18.37;5.70;;;;;;;-143.84;50.22;44921.50;5028661;28;20442;-74
2022/09/02 07:29:10;;;;;;;12.60;5.20;;;;;;;-143.84;50.50;44902.44;5030018;28;20443;-80
2022/09/02 07:31:39;;;;;;;18.33;4.90;;;;;;;-143.84;50.38;44931.00;5034184;28;20796;-80
2022/09/02 07:34:08;;;;;;;23.07;5.50;;;;;;;-143.84;50.94;44929.09;5034235;28;20431;-80
2022/09/02 07:36:36;;;;;;;11.93;4.57;;;;;;;-143.84;49.39;44921.50;5034378;28;20458;-79
2022/09/02 07:39:05;;;;;;;26.83;5.47;;;;;;;-143.84;49.05;44917.69;5033983;28;20496;-80
2022/09/02 07:41:34;;;;;;;14.87;4.63;;;;;;;-143.84;47.94;44936.72;5033605;28;20446;-80
2022/09/02 07:44:02;;;;;;;8.40;4.17;;;;;;;-143.84;48.25;44910.06;5033709;28;20490;-80
2022/09/02 07:46:31;;;;;;;18.20;4.70;;;;;;;-143.84;48.09;44898.66;5033635;28;20940;-80
2022/09/02 07:49:02;;;;;;;16.87;4.63;;;;;;;-143.84;48.46;44900.53;5033684;28;20443;-80
2022/09/02 07:51:32;;;;;;;17.93;4.93;;;;;;;-143.84;47.66;44911.97;5034130;28;21036;-80
2022/09/02 07:53:59;;;;;;;8.47;3.90;;;;;;;-143.84;47.15;44915.78;5034065;28;20478;-80
2022/09/02 07:56:26;;;;;;;6.87;4.13;;;;;;;-143.84;46.72;44889.13;5033344;28;20447;-80
2022/09/02 07:58:54;;;;;;;9.03;4.17;;;;;;;-143.84;47.27;44929.09;5033977;28;20566;-80
2022/09/02 08:01:22;;;;;;;17.23;3.97;;;;;;;-143.84;47.83;44950.06;5033687;28;20488;-76
2022/09/02 08:03:50;;;;;;;13.07;4.83;;;;;;;-143.84;47.90;44911.97;5028530;28;20501;-80
2022/09/02 08:06:19;;;;;;;15.47;4.70;;;;;;;-143.84;48.02;44898.66;5033872;28;20435;-80
2022/09/02 08:08:46;;;;;;;7.67;4.03;;;;;;;-143.84;48.71;44917.69;5033609;28;21273;-80
2022/09/02 08:11:13;;;;;;;22.13;4.40;;;;;;;-143.84;48.38;44894.84;5033391;28;21192;-80
2022/09/02 08:13:41;;;;;;;10.07;4.33;;;;;;;-143.84;47.48;44896.75;5033314;28;20427;-80
2022/09/02 08:16:09;;;;;;;13.90;4.47;;;;;;;-143.84;46.45;44913.88;5013700;28;20458;-80
2022/09/02 08:18:37;;;;;;;16.60;4.80;;;;;;;-143.84;47.58;44904.34;5013911;28;21036;-80
2022/09/02 08:21:04;;;;;;;13.90;3.90;;;;;;;-143.84;46.80;44906.25;5014042;28;20447;-80
2022/09/02 08:23:31;;;;;;;10.83;5.07;;;;;;;-143.84;48.73;44927.19;5014093;28;20916;-80
2022/09/02 08:25:59;;;;;;;12.23;5.03;;;;;;;-143.84;50.11;44923.41;5013573;28;20435;-79
2022/09/02 08:28:27;;;;;;;13.57;4.77;;;;;;;-143.84;49.96;44967.19;5013939;28;20455;-80
2022/09/02 08:30:57;;;;;;;10.23;5.40;;;;;;;-143.84;51.27;44971.00;5012987;28;20436;-80
2022/09/02 08:33:25;;;;;;;10.43;4.53;;;;;;;-143.84;52.89;44934.81;5013439;28;21121;-80
2022/09/02 08:35:53;;;;;;;13.03;5.27;;;;;;;-143.84;53.63;44963.38;5013528;28;20517;-80
2022/09/02 08:38:21;;;;;;;8.90;5.10;;;;;;;-143.84;54.38;44946.25;5013994;28;20876;-80
2022/09/02 08:40:49;;;;;;;16.90;5.20;;;;;;;-143.84;55.46;44953.88;5013020;28;20523;-81
2022/09/02 08:43:30;;;;;;;15.17;5.73;;;;;;;-143.84;53.81;44986.22;5013046;28;20501;-80
2022/09/02 08:46:03;;;;;;;16.33;5.17;;;;;;;-143.84;55.24;44955.75;5012677;28;20913;-79
2022/09/02 08:48:39;;;;;;;15.30;4.60;;;;;;;-143.84;55.50;44965.28;5012822;28;20844;-79
2022/09/02 08:51:10;;;;;;;10.43;5.20;;;;;;;-143.84;54.70;44965.28;5012262;28;20443;-80
2022/09/02 08:53:46;;;;;;;10.67;4.90;;;;;;;-143.84;53.32;44948.16;5014383;28;20906;-80
2022/09/02 08:56:17;;;;;;;10.27;4.90;;;;;;;-143.84;52.95;44908.16;5035300;28;20558;-80
2022/09/02 08:58:51;;;;;;;11.50;4.60;;;;;;;-143.84;52.80;44953.88;5041814;28;20461;-80
2022/09/02 09:01:29;;;;;;;5.53;4.30;;;;;;;-143.84;53.54;44957.66;5044103;28;20454;-80
2022/09/02 09:04:11;;;;;;;15.60;5.23;;;;;;;-143.84;52.86;44961.47;5038932;28;20853;-79
2022/09/02 09:06:51;;;;;;;17.80;5.50;;;;;;;-143.84;53.56;44931.00;5034825;28;20465;-80
2022/09/02 09:09:26;;;;;;;15.73;4.90;;;;;;;-143.84;53.38;44913.88;5038771;28;20540;-80
2022/09/02 09:12:04;;;;;;;8.03;5.30;;;;;;;-143.84;53.06;44944.34;5035296;28;20447;-80
2022/09/02 09:14:36;;;;;;;11.33;4.77;;;;;;;-143.84;52.73;44932.91;5034813;28;20963;-79
2022/09/02 09:17:15;;;;;;;14.50;5.40;;;;;;;-143.84;52.55;44942.44;5041615;28;20491;-79
2022/09/02 09:19:49;;;;;;;10.70;4.70;;;;;;;-143.84;52.11;44963.38;5038039;28;20460;-80
2022/09/02 09:22:19;;;;;;;6.80;4.40;;;;;;;-143.84;52.47;44946.25;5046207;28;20461;-80
2022/09/02 09:24:48;;;;;;;8.53;5.17;;;;;;;-143.84;53.42;44963.38;5046924;28;20474;-80
2022/09/02 09:27:18;;;;;;;8.60;4.43;;;;;;;-143.84;54.29;44936.72;5047869;28;20464;-80
2022/09/02 09:29:47;;;;;;;18.00;5.07;;;;;;;-143.84;53.81;44948.16;5043048;28;20435;-80
2022/09/02 09:32:22;;;;;;;15.50;5.03;;;;;;;-143.84;54.06;44959.56;5041774;28;20862;-80
2022/09/02 09:35:00;;;;;;;19.50;5.63;;;;;;;-143.84;55.28;44948.16;5038913;28;20445;-80
2022/09/02 09:37:46;;;;;;;9.50;5.50;;;;;;;-143.84;54.91;44950.06;5038421;28;20462;-80
2022/09/02 09:40:29;;;;;;;12.43;5.17;;;;;;;-143.84;54.49;44944.34;5044091;28;20453;-80
2022/09/02 09:43:00;;;;;;;9.43;4.90;;;;;;;-143.84;53.01;44959.56;5035387;28;20532;-80
2022/09/02 09:45:32;;;;;;;11.70;5.17;;;;;;;-143.84;53.40;44942.44;5046031;28;20544;-80
2022/09/02 09:48:13;;;;;;;19.50;5.13;;;;;;;-143.84;52.38;44921.50;5032493;28;20450;-80
2022/09/02 09:50:43;;;;;;;10.77;5.10;;;;;;;-143.84;52.84;44953.88;5039428;28;20457;-80
2022/09/02 09:53:19;;;;;;;10.03;4.97;;;;;;;-143.84;52.77;44944.34;5034684;28;20470;-80
2022/09/02 09:55:54;;;;;;;7.70;4.80;;;;;;;-143.84;53.28;44948.16;5037523;28;20885;-80
2022/09/02 09:58:24;;;;;;;12.73;4.53;;;;;;;-143.84;53.26;44938.63;5041313;28;20454;-80
2022/09/02 10:00:55;;;;;;;13.33;5.40;;;;;;;-143.84;52.81;44923.41;5043259;28;20956;-80
2022/09/02 10:03:25;;;;;;;12.70;5.20;;;;;;;-143.84;53.54;44927.19;5032768;28;20448;-80
2022/09/02 10:05:57;;;;;;;9.27;4.90;;;;;;;-143.84;54.23;44950.06;5038916;28;20454;-80
2022/09/02 10:08:25;;;;;;;9.57;4.93;;;;;;;-143.84;55.43;44946.25;5034109;28;20450;-80
2022/09/02 10:10:58;;;;;;;13.50;4.93;;;;;;;-143.84;55.62;44950.06;5043334;28;20459;-80
2022/09/02 10:13:28;;;;;;;17.87;5.00;;;;;;;-143.84;56.34;44951.97;5037466;28;20447;-80
2022/09/02 10:16:20;;;;;;;15.30;4.80;;;;;;;-143.84;56.60;44934.81;5031195;28;20435;-80
2022/09/02 10:18:53;;;;;;;20.77;4.93;;;;;;;-143.84;55.75;44951.97;5036834;28;20557;-80
2022/09/02 10:21:39;;;;;;;15.07;6.00;;;;;;;-143.84;54.96;44980.53;5043523;28;20456;-80
2022/09/02 10:24:12;;;;;;;15.97;4.60;;;;;;;-143.84;54.20;44957.66;5039594;28;20841;-80
2022/09/02 10:26:47;;;;;;;6.90;4.47;;;;;;;-143.84;53.03;44927.19;5040698;28;20462;-80
2022/09/02 10:29:41;;;;;;;11.43;4.87;;;;;;;-143.84;54.83;44948.16;5041749;28;20459;-80
2022/09/02 10:32:30;;;;;;;7.40;4.30;;;;;;;-143.84;53.69;44932.91;5011620;28;20467;-80
2022/09/02 10:35:10;;;;;;;10.07;5.57;;;;;;;-143.84;52.27;44906.25;5036685;28;20460;-80
2022/09/02 10:37:50;;;;;;;19.97;5.70;;;;;;;-143.84;51.36;44906.25;5042204;28;20528;-80
2022/09/02 10:40:24;;;;;;;9.03;4.90;;;;;;;-143.84;49.67;44931.00;5039537;28;20543;-81
2022/09/02 10:43:00;;;;;;;13.97;4.77;;;;;;;-143.84;50.90;44908.16;5043916;28;20451;-81
2022/09/02 10:45:34;;;;;;;8.17;4.63;;;;;;;-143.84;50.18;44881.50;5033117;28;20477;-81
2022/09/02 10:48:16;;;;;;;6.70;4.43;;;;;;;-143.84;48.65;44948.16;5042112;28;20445;-80
2022/09/02 10:50:48;;;;;;;11.70;4.67;;;;;;;-143.84;49.94;44932.91;5044225;28;20457;-80
2022/09/02 10:53:32;;;;;;;8.83;4.70;;;;;;;-143.84;49.85;44915.78;5043328;28;20482;-80
2022/09/02 10:56:04;;;;;;;16.30;5.43;;;;;;;-143.84;50.02;44904.34;5041934;28;20461;-80
2022/09/02 10:58:42;;;;;;;14.33;5.60;;;;;;;-143.84;49.74;44927.19;5044876;28;20461;-80
2022/09/02 11:01:16;;;;;;;9.00;4.40;;;;;;;-143.84;49.77;44950.06;5050748;28;20438;-81
2022/09/02 11:03:49;;;;;;;9.97;4.53;;;;;;;-143.84;51.11;44925.31;5051298;28;20433;-80
2022/09/02 11:06:24;;;;;;;7.23;4.27;;;;;;;-143.84;51.79;44917.69;5047190;28;20457;-80
2022/09/02 11:08:56;;;;;;;12.23;4.63;;;;;;;-143.84;49.79;44931.00;5034367;28;20458;-80
2022/09/02 11:11:29;;;;;;;12.83;4.27;;;;;;;-143.84;50.14;44931.00;5045614;28;21077;-80
2022/09/02 11:14:08;;;;;;;10.27;4.53;;;;;;;-143.84;50.72;44923.41;5039185;28;21211;-80
2022/09/02 11:16:40;;;;;;;6.40;4.00;;;;;;;-143.84;52.39;44934.81;5037597;28;20456;-80
2022/09/02 11:19:13;;;;;;;16.17;5.13;;;;;;;-143.84;54.40;44931.00;5036201;28;20449;-80
2022/09/02 11:21:53;;;;;;;19.23;5.70;;;;;;;-143.84;56.03;44955.75;5046972;28;20453;-80
2022/09/02 11:24:28;;;;;;;13.53;6.07;;;;;;;-143.84;57.64;44944.34;5042438;28;20519;-80
2022/09/02 11:27:00;;;;;;;19.00;6.97;;;;;;;-143.84;58.82;44963.38;5036031;28;20444;-80
2022/09/02 11:29:37;;;;;;;20.30;6.33;;;;;;;-143.84;61.15;44963.38;5044212;28;20448;-80